createdAt,value
2018-08-22T00:00:22.120Z,26.70
2018-08-22T00:02:50.526Z,26.70
2018-08-22T00:05:18.930Z,26.70
2018-08-22T00:07:47.421Z,26.70
2018-08-22T00:10:15.830Z,26.70
2018-08-22T00:12:44.245Z,26.70
2018-08-22T00:15:12.667Z,26.70
2018-08-22T00:17:41.123Z,26.70
2018-08-22T00:20:09.533Z,26.60
2018-08-22T00:22:37.957Z,26.70
2018-08-22T00:25:06.354Z,26.60
2018-08-22T00:27:35.780Z,26.60
2018-08-22T00:30:04.197Z,26.60
2018-08-22T00:32:32.669Z,26.60
2018-08-22T00:35:01.074Z,26.70
2018-08-22T00:37:29.811Z,26.70
2018-08-22T00:39:58.289Z,26.60
2018-08-22T00:42:26.684Z,26.60
2018-08-22T00:44:55.155Z,26.60
2018-08-22T00:47:23.574Z,26.60
2018-08-22T00:49:51.993Z,26.60
2018-08-22T00:52:20.389Z,26.60
2018-08-22T00:54:48.791Z,26.60
2018-08-22T00:57:17.205Z,26.60
2018-08-22T00:59:45.621Z,26.60
2018-08-22T01:02:14.196Z,26.60
2018-08-22T01:04:42.623Z,26.60
2018-08-22T01:07:11.032Z,26.60
2018-08-22T01:09:39.445Z,26.60
2018-08-22T01:12:07.856Z,26.60
2018-08-22T01:14:36.271Z,26.60
2018-08-22T01:17:05.693Z,26.60
2018-08-22T01:19:34.106Z,26.60
2018-08-22T01:22:02.540Z,26.60
2018-08-22T01:24:31.013Z,26.60
2018-08-22T01:26:59.428Z,26.60
2018-08-22T01:29:27.839Z,26.60
2018-08-22T01:31:56.289Z,26.60
2018-08-22T01:34:24.690Z,26.60
2018-08-22T01:36:53.096Z,26.60
2018-08-22T01:39:21.508Z,26.60
2018-08-22T01:41:49.902Z,26.60
2018-08-22T01:44:18.323Z,26.60
2018-08-22T01:46:46.742Z,26.60
2018-08-22T01:49:15.138Z,26.50
2018-08-22T01:51:43.562Z,26.60
2018-08-22T01:54:12.033Z,26.60
2018-08-22T01:56:40.449Z,26.60
2018-08-22T01:59:08.868Z,26.60
2018-08-22T02:01:37.309Z,26.60
2018-08-22T02:04:05.891Z,26.50
2018-08-22T02:06:34.370Z,26.50
2018-08-22T02:09:02.825Z,26.60
2018-08-22T02:11:31.255Z,26.60
2018-08-22T02:13:59.666Z,26.50
2018-08-22T02:16:28.093Z,26.50
2018-08-22T02:18:56.513Z,26.60
2018-08-22T02:21:24.944Z,26.50
2018-08-22T02:23:53.377Z,26.50
2018-08-22T02:26:21.806Z,26.50
2018-08-22T02:28:50.238Z,26.50
2018-08-22T02:31:18.677Z,26.50
2018-08-22T02:33:47.123Z,26.50
2018-08-22T02:36:15.560Z,26.50
2018-08-22T02:38:43.991Z,26.50
2018-08-22T02:41:12.407Z,26.50
2018-08-22T02:43:40.990Z,26.50
2018-08-22T02:46:09.432Z,26.50
2018-08-22T02:48:43.370Z,26.50
2018-08-22T02:51:11.969Z,26.50
2018-08-22T02:53:40.877Z,26.50
2018-08-22T02:56:09.316Z,26.50
2018-08-22T02:58:37.744Z,26.50
2018-08-22T03:01:06.206Z,26.50
2018-08-22T03:03:34.633Z,26.50
2018-08-22T03:06:03.410Z,26.50
2018-08-22T03:08:31.838Z,26.50
2018-08-22T03:11:00.293Z,26.50
2018-08-22T03:13:28.824Z,26.50
2018-08-22T03:15:57.509Z,26.50
2018-08-22T03:18:25.971Z,26.50
2018-08-22T03:20:54.423Z,26.50
2018-08-22T03:23:22.845Z,26.40
2018-08-22T03:25:51.264Z,26.40
2018-08-22T03:28:19.697Z,26.40
2018-08-22T03:30:48.509Z,26.40
2018-08-22T03:33:17.397Z,26.40
2018-08-22T03:35:45.815Z,26.40
2018-08-22T03:38:14.321Z,26.40
2018-08-22T03:40:42.764Z,26.40
2018-08-22T03:43:11.201Z,26.40
2018-08-22T03:45:39.663Z,26.40
2018-08-22T03:48:08.224Z,26.40
2018-08-22T03:50:36.857Z,26.40
2018-08-22T03:53:05.261Z,26.40
2018-08-22T03:55:33.667Z,26.40
2018-08-22T03:58:02.421Z,26.40
2018-08-22T04:00:30.814Z,26.40
2018-08-22T04:02:59.240Z,26.40
2018-08-22T04:05:27.650Z,26.40
2018-08-22T04:07:56.062Z,26.40
2018-08-22T04:10:24.468Z,26.40
2018-08-22T04:12:53.493Z,26.40
2018-08-22T04:15:22.031Z,26.40
2018-08-22T04:17:50.438Z,26.40
2018-08-22T04:20:18.854Z,26.40
2018-08-22T04:22:47.557Z,26.40
2018-08-22T04:25:15.972Z,26.40
2018-08-22T04:27:44.363Z,26.40
2018-08-22T04:30:12.857Z,26.40
2018-08-22T04:32:41.285Z,26.40
2018-08-22T04:35:09.727Z,26.40
2018-08-22T04:37:38.145Z,26.40
2018-08-22T04:40:06.546Z,26.40
2018-08-22T04:42:34.941Z,26.40
2018-08-22T04:45:03.341Z,26.40
2018-08-22T04:47:31.923Z,26.30
2018-08-22T04:50:01.024Z,26.40
2018-08-22T04:52:29.511Z,26.40
2018-08-22T04:54:57.983Z,26.40
2018-08-22T04:57:26.421Z,26.40
2018-08-22T04:59:54.863Z,26.40
2018-08-22T05:02:23.281Z,26.30
2018-08-22T05:04:51.806Z,26.40
2018-08-22T05:07:20.225Z,26.30
2018-08-22T05:09:48.848Z,26.30
2018-08-22T05:12:17.310Z,26.30
2018-08-22T05:14:45.756Z,26.30
2018-08-22T05:17:14.193Z,26.30
2018-08-22T05:19:42.671Z,26.30
2018-08-22T05:22:11.109Z,26.30
2018-08-22T05:24:39.565Z,26.30
2018-08-22T05:27:08.011Z,26.30
2018-08-22T05:29:36.460Z,26.30
2018-08-22T05:32:04.904Z,26.30
2018-08-22T05:34:33.338Z,26.30
2018-08-22T05:37:01.774Z,26.40
2018-08-22T05:39:30.211Z,26.40
2018-08-22T05:41:58.653Z,26.40
2018-08-22T05:44:27.141Z,26.40
2018-08-22T05:46:55.545Z,26.40
2018-08-22T05:49:24.072Z,26.40
2018-08-22T05:51:52.787Z,26.40
2018-08-22T05:54:21.214Z,26.40
2018-08-22T05:56:49.681Z,26.50
2018-08-22T05:59:18.241Z,26.40
2018-08-22T06:01:46.695Z,26.50
2018-08-22T06:04:15.985Z,26.50
2018-08-22T06:06:44.438Z,26.50
2018-08-22T06:09:13.591Z,26.50
2018-08-22T06:11:43.554Z,26.60
2018-08-22T06:14:12.154Z,26.60
2018-08-22T06:16:40.739Z,26.60
2018-08-22T06:19:09.284Z,26.60
2018-08-22T06:21:37.973Z,26.70
2018-08-22T06:24:06.621Z,26.70
2018-08-22T06:26:35.974Z,26.70
2018-08-22T06:29:05.319Z,26.70
2018-08-22T06:31:35.678Z,26.70
2018-08-22T06:34:04.203Z,26.70
2018-08-22T06:36:32.647Z,26.70
2018-08-22T06:39:01.229Z,26.80
2018-08-22T06:41:30.728Z,26.80
2018-08-22T06:43:59.347Z,26.80
2018-08-22T06:46:27.909Z,26.90
2018-08-22T06:48:56.418Z,26.90
2018-08-22T06:51:24.850Z,26.90
2018-08-22T06:53:53.943Z,26.90
2018-08-22T06:56:23.317Z,27.00
2018-08-22T06:58:52.886Z,27.00
2018-08-22T07:01:21.989Z,27.00
2018-08-22T07:03:50.909Z,27.00
2018-08-22T07:06:20.053Z,27.10
2018-08-22T07:11:40.242Z,27.10
2018-08-22T07:14:09.874Z,27.20
2018-08-22T07:16:39.211Z,27.20
2018-08-22T07:19:08.219Z,27.20
2018-08-22T07:21:37.344Z,27.20
2018-08-22T07:24:06.446Z,27.20
2018-08-22T07:26:35.536Z,27.20
2018-08-22T07:29:05.221Z,27.20
2018-08-22T07:31:34.286Z,27.30
2018-08-22T07:34:03.735Z,27.30
2018-08-22T07:36:32.949Z,27.30
2018-08-22T07:39:02.547Z,27.30
2018-08-22T07:41:31.918Z,27.30
2018-08-22T07:44:01.388Z,27.30
2018-08-22T07:46:30.678Z,27.30
2018-08-22T07:48:59.919Z,27.40
2018-08-22T07:51:29.274Z,27.40
2018-08-22T07:53:58.703Z,27.40
2018-08-22T07:56:29.322Z,27.40
2018-08-22T07:59:13.686Z,27.40
2018-08-22T08:01:43.561Z,27.40
2018-08-22T08:04:13.777Z,27.40
2018-08-22T08:06:43.412Z,27.40
2018-08-22T08:09:14.049Z,27.40
2018-08-22T08:11:43.294Z,27.40
2018-08-22T08:14:12.744Z,27.40
2018-08-22T08:16:42.208Z,27.40
2018-08-22T08:19:11.926Z,27.40
2018-08-22T08:21:40.747Z,27.40
2018-08-22T08:24:10.013Z,27.50
2018-08-22T08:26:38.946Z,27.40
2018-08-22T08:29:07.746Z,27.40
2018-08-22T08:31:36.637Z,27.40
2018-08-22T08:34:05.614Z,27.50
2018-08-22T08:36:34.647Z,27.50
2018-08-22T08:39:04.093Z,27.50
2018-08-22T08:41:32.795Z,27.50
2018-08-22T08:44:01.757Z,27.50
2018-08-22T08:46:30.761Z,27.50
2018-08-22T08:48:59.891Z,27.50
2018-08-22T08:51:29.758Z,27.50
2018-08-22T08:53:58.905Z,27.50
2018-08-22T08:56:27.817Z,27.50
2018-08-22T08:58:56.591Z,27.60
2018-08-22T09:01:26.364Z,27.60
2018-08-22T09:03:55.815Z,27.60
2018-08-22T09:06:24.635Z,27.60
2018-08-22T09:08:53.733Z,27.60
2018-08-22T09:11:22.579Z,27.60
2018-08-22T09:13:57.973Z,27.60
2018-08-22T09:16:26.815Z,27.60
2018-08-22T09:18:56.120Z,27.60
2018-08-22T09:21:25.058Z,27.60
2018-08-22T09:23:53.903Z,27.60
2018-08-22T09:26:22.792Z,27.60
2018-08-22T09:28:52.096Z,27.60
2018-08-22T09:31:21.087Z,27.60
2018-08-22T09:33:49.871Z,27.60
2018-08-22T09:36:20.430Z,27.60
2018-08-22T09:38:50.514Z,27.70
2018-08-22T09:41:19.962Z,27.70
2018-08-22T09:43:48.564Z,27.70
2018-08-22T09:46:17.307Z,27.70
2018-08-22T09:48:46.591Z,27.70
2018-08-22T09:51:16.666Z,27.70
2018-08-22T09:53:45.723Z,27.70
2018-08-22T09:56:14.513Z,27.70
2018-08-22T09:58:43.315Z,27.70
2018-08-22T10:01:17.159Z,27.70
2018-08-22T10:03:52.582Z,27.70
2018-08-22T10:06:31.168Z,27.80
2018-08-22T10:09:01.283Z,27.70
2018-08-22T10:11:30.161Z,27.70
2018-08-22T10:13:59.438Z,27.70
2018-08-22T10:16:29.305Z,27.80
2018-08-22T10:18:59.139Z,27.70
2018-08-22T10:21:28.284Z,27.80
2018-08-22T10:23:57.066Z,27.70
2018-08-22T10:26:25.528Z,27.80
2018-08-22T10:28:55.741Z,27.80
2018-08-22T10:31:26.714Z,27.80
2018-08-22T10:33:56.245Z,27.80
2018-08-22T10:36:25.171Z,27.80
2018-08-22T10:38:53.941Z,27.80
2018-08-22T10:41:22.990Z,27.80
2018-08-22T10:43:51.845Z,27.80
2018-08-22T10:46:22.530Z,27.80
2018-08-22T10:48:51.437Z,27.80
2018-08-22T10:51:20.344Z,27.80
2018-08-22T10:53:49.233Z,27.90
2018-08-22T10:56:17.822Z,27.80
2018-08-22T10:58:46.816Z,27.80
2018-08-22T11:01:15.845Z,27.90
2018-08-22T11:03:44.637Z,27.90
2018-08-22T11:06:13.477Z,27.90
2018-08-22T11:08:42.178Z,27.90
2018-08-22T11:11:10.923Z,27.90
2018-08-22T11:13:39.795Z,27.90
2018-08-22T11:16:08.918Z,27.90
2018-08-22T11:18:38.018Z,27.90
2018-08-22T11:21:18.111Z,27.90
2018-08-22T11:23:58.266Z,27.90
2018-08-22T11:26:38.423Z,27.90
2018-08-22T11:29:18.634Z,27.90
2018-08-22T11:31:58.709Z,27.90
2018-08-22T11:34:38.483Z,27.90
2018-08-22T11:37:09.743Z,28.00
2018-08-22T11:39:38.334Z,28.00
2018-08-22T11:42:07.668Z,28.00
2018-08-22T11:44:36.663Z,28.00
2018-08-22T11:47:05.629Z,28.00
2018-08-22T11:49:36.152Z,28.00
2018-08-22T11:52:04.597Z,28.00
2018-08-22T11:54:33.324Z,28.00
2018-08-22T11:57:02.488Z,28.00
2018-08-22T11:59:31.271Z,28.00
2018-08-22T12:02:00.044Z,28.00
2018-08-22T12:04:28.522Z,28.00
2018-08-22T12:06:57.247Z,28.00
2018-08-22T12:09:25.981Z,28.00
2018-08-22T12:11:54.612Z,28.00
2018-08-22T12:14:23.414Z,28.10
2018-08-22T12:16:52.252Z,28.10
2018-08-22T12:19:20.919Z,28.00
2018-08-22T12:21:49.605Z,28.10
2018-08-22T12:24:18.231Z,28.00
2018-08-22T12:26:46.872Z,28.10
2018-08-22T12:29:15.537Z,28.10
2018-08-22T12:31:44.189Z,28.10
2018-08-22T12:34:12.911Z,28.10
2018-08-22T12:36:41.608Z,28.10
2018-08-22T12:39:10.417Z,28.10
2018-08-22T12:41:39.039Z,28.10
2018-08-22T12:44:07.555Z,28.10
2018-08-22T12:46:36.121Z,28.10
2018-08-22T12:49:04.906Z,28.10
2018-08-22T12:51:33.472Z,28.10
2018-08-22T12:54:02.154Z,28.10
2018-08-22T12:56:30.753Z,28.10
2018-08-22T12:58:59.234Z,28.10
2018-08-22T13:01:28.038Z,28.10
2018-08-22T13:03:56.759Z,28.20
2018-08-22T13:06:25.465Z,28.20
2018-08-22T13:08:54.262Z,28.10
2018-08-22T13:11:22.837Z,28.20
2018-08-22T13:13:51.256Z,28.10
2018-08-22T13:16:19.676Z,28.10
2018-08-22T13:18:48.411Z,28.20
2018-08-22T13:21:16.872Z,28.20
2018-08-22T13:23:45.283Z,28.20
2018-08-22T13:26:13.705Z,28.20
2018-08-22T13:28:42.358Z,28.20
2018-08-22T13:31:12.693Z,28.20
2018-08-22T13:33:42.117Z,28.20
2018-08-22T13:36:11.758Z,28.20
2018-08-22T13:38:40.297Z,28.20
2018-08-22T13:41:08.909Z,28.20
2018-08-22T13:43:37.372Z,28.20
2018-08-22T13:46:05.790Z,28.20
2018-08-22T13:48:34.196Z,28.20
2018-08-22T13:51:02.629Z,28.20
2018-08-22T13:53:31.166Z,28.20
2018-08-22T13:55:59.623Z,28.20
2018-08-22T13:58:28.072Z,28.20
2018-08-22T14:00:56.486Z,28.20
2018-08-22T14:03:24.926Z,28.20
2018-08-22T14:05:53.360Z,28.20
2018-08-22T14:08:21.809Z,28.20
2018-08-22T14:10:50.238Z,28.20
2018-08-22T14:13:18.741Z,28.20
2018-08-22T14:15:47.216Z,28.20
2018-08-22T14:18:15.643Z,28.20
2018-08-22T14:20:44.176Z,28.20
2018-08-22T14:23:12.590Z,28.20
2018-08-22T14:25:41.102Z,28.20
2018-08-22T14:28:09.612Z,28.20
2018-08-22T14:30:38.079Z,28.20
2018-08-22T14:33:06.505Z,28.20
2018-08-22T14:35:34.954Z,28.20
2018-08-22T14:38:03.478Z,28.20
2018-08-22T14:40:31.905Z,28.20
2018-08-22T14:43:00.484Z,28.10
2018-08-22T14:45:29.370Z,28.20
2018-08-22T14:47:58.544Z,28.20
2018-08-22T14:50:27.249Z,28.10
2018-08-22T14:52:55.701Z,28.20
2018-08-22T14:55:24.300Z,28.10
2018-08-22T14:57:52.885Z,28.10
2018-08-22T15:00:21.329Z,28.10
2018-08-22T15:02:49.994Z,28.10
2018-08-22T15:05:18.454Z,28.10
2018-08-22T15:07:46.947Z,28.10
2018-08-22T15:10:17.011Z,28.10
2018-08-22T15:12:46.089Z,28.10
2018-08-22T15:15:14.648Z,28.10
2018-08-22T15:17:43.627Z,28.00
2018-08-22T15:20:12.065Z,28.00
2018-08-22T15:22:40.638Z,28.10
2018-08-22T15:25:09.535Z,28.00
2018-08-22T15:27:38.117Z,28.00
2018-08-22T15:30:07.538Z,28.00
2018-08-22T15:32:36.028Z,28.10
2018-08-22T15:35:04.449Z,28.00
2018-08-22T15:37:33.237Z,28.00
2018-08-22T15:40:01.986Z,28.00
2018-08-22T15:42:30.607Z,28.00
2018-08-22T15:44:59.334Z,28.00
2018-08-22T15:47:27.885Z,28.00
2018-08-22T15:49:56.590Z,28.00
2018-08-22T15:52:25.217Z,28.00
2018-08-22T15:55:06.722Z,28.00
2018-08-22T15:57:48.369Z,28.00
2018-08-22T16:00:37.951Z,28.00
2018-08-22T16:03:07.392Z,28.00
2018-08-22T16:05:36.751Z,27.90
2018-08-22T16:08:05.583Z,28.00
2018-08-22T16:10:34.056Z,27.90
2018-08-22T16:13:02.708Z,27.90
2018-08-22T16:15:33.210Z,27.90
2018-08-22T16:18:05.218Z,27.90
2018-08-22T16:20:40.969Z,27.90
2018-08-22T16:23:09.441Z,27.90
2018-08-22T16:25:55.359Z,27.90
2018-08-22T16:28:24.377Z,27.90
2018-08-22T16:30:57.343Z,27.90
2018-08-22T16:33:23.055Z,27.90
2018-08-22T16:35:52.537Z,27.90
2018-08-22T16:38:23.244Z,27.80
2018-08-22T16:40:53.762Z,27.80
2018-08-22T16:43:41.566Z,27.80
2018-08-22T16:46:14.263Z,27.80
2018-08-22T16:48:45.665Z,27.80
2018-08-22T16:51:15.308Z,27.80
2018-08-22T16:54:01.313Z,27.80
2018-08-22T16:56:37.627Z,27.80
2018-08-22T16:59:16.596Z,27.80
2018-08-22T17:01:47.531Z,27.80
2018-08-22T17:04:17.367Z,27.80
2018-08-22T17:06:46.857Z,27.80
2018-08-22T17:09:16.700Z,27.80
2018-08-22T17:11:46.159Z,27.80
2018-08-22T17:14:15.689Z,27.80
2018-08-22T17:16:45.305Z,27.80
2018-08-22T17:19:15.045Z,27.80
2018-08-22T17:21:43.549Z,27.80
2018-08-22T17:24:12.105Z,27.80
2018-08-22T17:26:40.613Z,27.80
2018-08-22T17:29:09.037Z,27.70
2018-08-22T17:31:37.490Z,27.70
2018-08-22T17:34:05.996Z,27.80
2018-08-22T17:36:34.441Z,27.70
2018-08-22T17:39:03.244Z,27.80
2018-08-22T17:41:31.778Z,27.70
2018-08-22T17:44:07.614Z,27.70
2018-08-22T17:46:37.418Z,27.70
2018-08-22T17:49:07.123Z,27.70
2018-08-22T17:51:56.875Z,27.70
2018-08-22T17:54:25.680Z,27.70
2018-08-22T17:57:05.963Z,27.70
2018-08-22T17:59:34.424Z,27.70
2018-08-22T18:02:02.956Z,27.70
2018-08-22T18:04:42.738Z,27.70
2018-08-22T18:07:11.312Z,27.70
2018-08-22T18:09:39.708Z,27.70
2018-08-22T18:12:08.246Z,27.60
2018-08-22T18:14:36.789Z,27.60
2018-08-22T18:17:06.289Z,27.70
2018-08-22T18:19:36.382Z,27.60
2018-08-22T18:22:04.821Z,27.70
2018-08-22T18:24:34.497Z,27.70
2018-08-22T18:27:05.429Z,27.60
2018-08-22T18:29:34.225Z,27.60
2018-08-22T18:32:02.721Z,27.60
2018-08-22T18:34:31.334Z,27.60
2018-08-22T18:36:59.734Z,27.60
2018-08-22T18:39:28.152Z,27.60
2018-08-22T18:41:56.596Z,27.60
2018-08-22T18:44:25.134Z,27.60
2018-08-22T18:46:53.645Z,27.60
2018-08-22T18:49:22.074Z,27.60
2018-08-22T18:51:50.609Z,27.60
2018-08-22T18:54:19.089Z,27.60
2018-08-22T18:56:47.661Z,27.60
2018-08-22T18:59:22.547Z,27.60
2018-08-22T19:01:51.046Z,27.60
2018-08-22T19:04:19.434Z,27.60
2018-08-22T19:06:48.623Z,27.60
2018-08-22T19:09:17.073Z,27.50
2018-08-22T19:11:57.057Z,27.50
2018-08-22T19:14:37.328Z,27.60
2018-08-22T19:17:06.304Z,27.60
2018-08-22T19:19:39.666Z,27.50
2018-08-22T19:22:08.127Z,27.50
2018-08-22T19:24:36.572Z,27.50
2018-08-22T19:27:05.015Z,27.50
2018-08-22T19:29:34.538Z,27.50
2018-08-22T19:32:02.986Z,27.50
2018-08-22T19:34:31.473Z,27.50
2018-08-22T19:36:59.906Z,27.50
2018-08-22T19:39:28.660Z,27.50
2018-08-22T19:41:57.173Z,27.50
2018-08-22T19:44:26.613Z,27.50
2018-08-22T19:46:55.218Z,27.40
2018-08-22T19:49:24.103Z,27.50
2018-08-22T19:51:52.982Z,27.40
2018-08-22T19:54:21.836Z,27.50
2018-08-22T19:56:50.458Z,27.40
2018-08-22T19:59:19.148Z,27.40
2018-08-22T20:01:48.018Z,27.40
2018-08-22T20:04:17.057Z,27.40
2018-08-22T20:06:45.610Z,27.40
2018-08-22T20:09:14.036Z,27.40
2018-08-22T20:11:42.497Z,27.40
2018-08-22T20:14:11.195Z,27.40
2018-08-22T20:16:39.730Z,27.40
2018-08-22T20:19:08.420Z,27.40
2018-08-22T20:21:38.973Z,27.40
2018-08-22T20:24:11.056Z,27.40
2018-08-22T20:26:48.537Z,27.40
2018-08-22T20:29:17.063Z,27.40
2018-08-22T20:31:45.552Z,27.40
2018-08-22T20:34:15.794Z,27.40
2018-08-22T20:36:45.624Z,27.40
2018-08-22T20:39:14.505Z,27.40
2018-08-22T20:41:43.808Z,27.40
2018-08-22T20:44:16.563Z,27.30
2018-08-22T20:46:46.232Z,27.30
2018-08-22T20:49:16.134Z,27.40
2018-08-22T20:51:45.142Z,27.30
2018-08-22T20:54:14.815Z,27.30
2018-08-22T20:56:49.131Z,27.30
2018-08-22T20:59:18.855Z,27.30
2018-08-22T21:01:52.941Z,27.30
2018-08-22T21:04:21.882Z,27.30
2018-08-22T21:06:50.504Z,27.30
2018-08-22T21:09:19.061Z,27.30
2018-08-22T21:11:48.379Z,27.30
2018-08-22T21:14:16.948Z,27.30
2018-08-22T21:16:45.480Z,27.30
2018-08-22T21:19:14.624Z,27.30
2018-08-22T21:21:43.718Z,27.30
2018-08-22T21:24:12.233Z,27.30
2018-08-22T21:26:43.414Z,27.30
2018-08-22T21:29:12.677Z,27.30
2018-08-22T21:31:41.186Z,27.30
2018-08-22T21:34:15.061Z,27.30
2018-08-22T21:36:45.028Z,27.30
2018-08-22T21:39:18.712Z,27.20
2018-08-22T21:41:47.790Z,27.20
2018-08-22T21:44:18.562Z,27.20
2018-08-22T21:46:54.848Z,27.20
2018-08-22T21:49:23.824Z,27.20
2018-08-22T21:51:52.241Z,27.20
2018-08-22T21:54:20.694Z,27.20
2018-08-22T21:56:49.189Z,27.20
2018-08-22T21:59:17.608Z,27.20
2018-08-22T22:01:51.444Z,27.20
2018-08-22T22:04:25.240Z,27.20
2018-08-22T22:06:53.663Z,27.20
2018-08-22T22:09:22.092Z,27.20
2018-08-22T22:11:54.231Z,27.20
2018-08-22T22:14:25.845Z,27.20
2018-08-22T22:16:56.051Z,27.20
2018-08-22T22:19:25.901Z,27.20
2018-08-22T22:21:54.319Z,27.20
2018-08-22T22:24:22.757Z,27.20
2018-08-22T22:26:51.176Z,27.20
2018-08-22T22:29:19.636Z,27.20
2018-08-22T22:31:48.055Z,27.20
2018-08-22T22:34:16.478Z,27.20
2018-08-22T22:36:44.929Z,27.20
2018-08-22T22:39:30.146Z,27.20
2018-08-22T22:41:58.551Z,27.20
2018-08-22T22:44:26.979Z,27.20
2018-08-22T22:46:55.412Z,27.20
2018-08-22T22:49:23.822Z,27.10
2018-08-22T22:51:52.309Z,27.20
2018-08-22T22:54:32.221Z,27.10
2018-08-22T22:57:00.656Z,27.10
2018-08-22T22:59:29.087Z,27.10
2018-08-22T23:01:57.529Z,27.10
2018-08-22T23:04:26.856Z,27.10
2018-08-22T23:07:05.529Z,27.10
2018-08-22T23:09:43.990Z,27.10
2018-08-22T23:12:12.432Z,27.10
2018-08-22T23:14:40.865Z,27.10
2018-08-22T23:17:09.367Z,27.10
2018-08-22T23:19:37.798Z,27.10
2018-08-22T23:22:06.246Z,27.10
2018-08-22T23:24:34.678Z,27.10
2018-08-22T23:27:03.102Z,27.10
2018-08-22T23:29:32.010Z,27.10
2018-08-22T23:32:00.433Z,27.10
2018-08-22T23:34:28.860Z,27.10
2018-08-22T23:36:57.301Z,27.10
2018-08-22T23:39:25.735Z,27.10
2018-08-22T23:41:54.166Z,27.10
2018-08-22T23:44:22.608Z,27.10
2018-08-22T23:46:51.154Z,27.10
2018-08-22T23:49:19.599Z,27.10
2018-08-22T23:51:48.032Z,27.10
2018-08-22T23:54:16.453Z,27.10
2018-08-22T23:56:44.915Z,27.10
2018-08-22T23:59:13.354Z,27.10
